Terminal Aerodrome Forecast
Issued by NWS

Home | Current Version | Previous Version | Text Only | Print | Product List | Glossary On
Versions: 1 2 3 4 5 6 7 8 9 10 11 12 13 14 15 16 17 18 19 20 21 22 23 24 25 26 27 28
000
FTUS43 KDVN 261244 AAA
TAFCID
TAF AMD
KCID 261244Z 2613/2712 15010KT 6SM -RA BR SCT015 OVC050
      TEMPO 2613/2616 3SM RA BR BKN015
     FM261600 17011KT P6SM VCSH BKN025
     FM261900 20013KT P6SM BKN035
     FM270100 23006KT P6SM SCT040 BKN250=

USA.gov is the U.S. government's official web portal to all federal, state and local government web resources and services.